SCOS weather

Osorno Pampa Ale Airport
Osorno, Los Lagos Region, Chile

Public forecast

Using degrees Celsius for public forecast. Weather courtesy of forecast.io.

METAR (pilot weather report)

Report is more than 6 hours old.

Closest report is Cañal Bajo Carlos - Hott Siebert Airport, 5.8 nm (10.7 km) SE. Retrieved 2019/09/23 21:00 UTC (11 hours ago):

SCJO 232100Z 19007KT 9999 FEW040 17/09 Q1025

TAF (pilot weather forecast)

Forecast is more than 12 hours old.

Closest forecast is Cañal Bajo Carlos - Hott Siebert Airport, 5.8 nm (10.7 km) SE. Retrieved 2019/09/23 12:33 UTC (19 hours ago):

TAF SCJO 231011Z 2312/2324 19005KT CAVOK TN02/2312Z TX16/2318Z BECMG 2315/2317 18010KT